Time;durP1;ratioP1;P1;durP2;ratioP2;P2;SDS_P1;SDS_P2;PMS_P1;PMS_P2;Temp;Humidity;BMP_temperature;BMP_pressure;BME280_temperature;BME280_humidity;BME280_pressure;Samples;Min_cycle;Max_cycle;Signal;HPM_P1;HPM_P2
2023/02/24 00:01:18;;;;;;;6.43;2.03;;;;;;;;;;4977442;28;20284;-87
2023/02/24 00:03:44;;;;;;;8.90;2.37;;;;;;;;;;4997877;28;20703;-85
2023/02/24 00:06:11;;;;;;;6.03;1.63;;;;;;;;;;5018674;28;20225;-87
2023/02/24 00:08:38;;;;;;;8.70;2.10;;;;;;;;;;4973565;28;20209;-85
2023/02/24 00:11:14;;;;;;;7.37;2.00;;;;;;;;;;4986336;28;20304;-87
2023/02/24 00:13:46;;;;;;;4.83;1.90;;;;;;;;;;4979981;28;20217;-87
2023/02/24 00:16:13;;;;;;;10.53;2.37;;;;;;;;;;5010457;28;20229;-85
2023/02/24 00:18:41;;;;;;;7.57;1.90;;;;;;;;;;4982407;28;20384;-86
2023/02/24 00:21:12;;;;;;;6.00;1.90;;;;;;;;;;4983535;28;20217;-86
2023/02/24 00:23:40;;;;;;;7.13;2.43;;;;;;;;;;5019299;28;20224;-87
2023/02/24 00:26:06;;;;;;;12.50;2.20;;;;;;;;;;4980279;28;20660;-86
2023/02/24 00:28:33;;;;;;;6.90;2.10;;;;;;;;;;4973162;28;20221;-88
2023/02/24 00:31:10;;;;;;;8.90;2.07;;;;;;;;;;4995993;28;20722;-86
2023/02/24 00:33:36;;;;;;;7.90;2.57;;;;;;;;;;4981205;28;20259;-84
2023/02/24 00:36:12;;;;;;;7.50;2.07;;;;;;;;;;4976871;28;20217;-87
2023/02/24 00:38:45;;;;;;;12.40;2.33;;;;;;;;;;4992564;28;20224;-88
2023/02/24 00:41:15;;;;;;;6.67;2.40;;;;;;;;;;4998439;28;20614;-85
2023/02/24 00:43:45;;;;;;;5.97;2.73;;;;;;;;;;4979937;28;20201;-87
2023/02/24 00:46:19;;;;;;;5.10;2.07;;;;;;;;;;4981324;28;20308;-84
2023/02/24 00:48:48;;;;;;;8.47;1.97;;;;;;;;;;4989624;28;20213;-85
2023/02/24 00:51:22;;;;;;;6.33;1.50;;;;;;;;;;5004946;28;20240;-85
2023/02/24 00:53:57;;;;;;;8.93;2.10;;;;;;;;;;4997398;28;20216;-88
2023/02/24 00:56:26;;;;;;;6.17;1.87;;;;;;;;;;4996861;28;20239;-85
2023/02/24 00:58:55;;;;;;;9.53;2.13;;;;;;;;;;4981591;28;20589;-87
2023/02/24 01:01:25;;;;;;;5.10;1.97;;;;;;;;;;4995037;28;20216;-86
2023/02/24 01:03:53;;;;;;;6.90;2.23;;;;;;;;;;5022991;28;20271;-87
2023/02/24 01:06:25;;;;;;;8.17;2.27;;;;;;;;;;4995475;28;20928;-86
2023/02/24 01:08:51;;;;;;;5.47;1.83;;;;;;;;;;4983780;28;20641;-87
2023/02/24 01:14:14;;;;;;;4.97;2.13;;;;;;;;;;5004440;28;20223;-83
2023/02/24 01:16:43;;;;;;;10.27;2.00;;;;;;;;;;4997392;28;20270;-84
2023/02/24 01:19:11;;;;;;;5.03;2.00;;;;;;;;;;4995015;28;20201;-85
2023/02/24 01:21:39;;;;;;;5.63;1.90;;;;;;;;;;5007486;28;20417;-84
2023/02/24 01:24:05;;;;;;;5.03;1.90;;;;;;;;;;4971176;28;20693;-87
2023/02/24 01:26:33;;;;;;;7.77;1.90;;;;;;;;;;5003181;28;20224;-87
2023/02/24 01:28:58;;;;;;;5.13;1.57;;;;;;;;;;4995296;28;20255;-87
2023/02/24 01:31:27;;;;;;;6.53;1.90;;;;;;;;;;4978944;28;20213;-85
2023/02/24 01:33:57;;;;;;;12.37;2.27;;;;;;;;;;4984929;28;20252;-86
2023/02/24 01:36:26;;;;;;;8.50;2.03;;;;;;;;;;4995571;28;20213;-86
2023/02/24 01:38:53;;;;;;;5.73;1.77;;;;;;;;;;4992314;28;20222;-86
2023/02/24 01:41:21;;;;;;;3.10;1.30;;;;;;;;;;4994800;28;20324;-86
2023/02/24 01:43:57;;;;;;;5.40;1.47;;;;;;;;;;4997366;28;20641;-85
2023/02/24 01:46:26;;;;;;;5.67;2.23;;;;;;;;;;5011444;28;20233;-85
2023/02/24 01:48:53;;;;;;;6.83;1.73;;;;;;;;;;4993823;28;20229;-85
2023/02/24 01:51:18;;;;;;;10.97;2.33;;;;;;;;;;4993942;28;20304;-87
2023/02/24 01:53:44;;;;;;;3.30;1.53;;;;;;;;;;4997938;28;20239;-84
2023/02/24 01:56:14;;;;;;;14.73;1.73;;;;;;;;;;5012688;28;20225;-84
2023/02/24 01:58:42;;;;;;;2.40;1.50;;;;;;;;;;4969304;28;20989;-87
2023/02/24 02:01:09;;;;;;;7.40;1.37;;;;;;;;;;4995575;28;20336;-87
2023/02/24 02:03:40;;;;;;;4.87;1.50;;;;;;;;;;4966617;28;20244;-86
2023/02/24 02:06:10;;;;;;;5.57;1.50;;;;;;;;;;4999468;28;20513;-87
2023/02/24 02:08:40;;;;;;;6.80;1.73;;;;;;;;;;4979840;28;20799;-86
2023/02/24 02:11:08;;;;;;;3.10;1.30;;;;;;;;;;4976462;28;20244;-86
2023/02/24 02:13:36;;;;;;;6.03;1.43;;;;;;;;;;4993970;28;20390;-87
2023/02/24 02:16:02;;;;;;;4.87;1.70;;;;;;;;;;4980825;28;20235;-88
2023/02/24 02:18:42;;;;;;;3.10;1.33;;;;;;;;;;5010903;28;20566;-88
2023/02/24 02:21:28;;;;;;;6.63;1.70;;;;;;;;;;4995732;28;20271;-85
2023/02/24 02:24:32;;;;;;;7.30;1.67;;;;;;;;;;5000592;28;20284;-85
2023/02/24 02:27:19;;;;;;;2.90;1.47;;;;;;;;;;5004200;28;20259;-87
2023/02/24 02:29:56;;;;;;;2.80;1.63;;;;;;;;;;4995189;28;20255;-85
2023/02/24 02:33:03;;;;;;;6.43;1.50;;;;;;;;;;4999298;28;20283;-86
2023/02/24 02:35:39;;;;;;;7.43;2.20;;;;;;;;;;4983252;28;20221;-86
2023/02/24 02:38:13;;;;;;;4.03;1.70;;;;;;;;;;5013413;28;20221;-85
2023/02/24 02:40:47;;;;;;;4.03;1.50;;;;;;;;;;5031935;28;20220;-84
2023/02/24 02:43:24;;;;;;;4.63;1.53;;;;;;;;;;4985084;28;20225;-86
2023/02/24 02:45:56;;;;;;;5.90;1.83;;;;;;;;;;5020462;28;20279;-84
2023/02/24 02:48:36;;;;;;;5.23;1.33;;;;;;;;;;5033984;28;20237;-85
2023/02/24 02:51:06;;;;;;;5.93;1.57;;;;;;;;;;5018057;28;20225;-86
2023/02/24 02:53:37;;;;;;;4.60;1.50;;;;;;;;;;5006444;28;20244;-85
2023/02/24 02:56:10;;;;;;;3.80;1.50;;;;;;;;;;5021009;28;20236;-85
2023/02/24 02:58:41;;;;;;;3.77;1.27;;;;;;;;;;5025883;28;20236;-84
2023/02/24 03:01:12;;;;;;;3.30;1.30;;;;;;;;;;4997692;28;20201;-85
2023/02/24 03:03:51;;;;;;;5.57;1.37;;;;;;;;;;5004837;28;20213;-86
2023/02/24 03:06:26;;;;;;;4.30;1.60;;;;;;;;;;5013648;28;20240;-85
2023/02/24 03:08:56;;;;;;;4.13;1.77;;;;;;;;;;5004882;28;20224;-84
2023/02/24 03:11:22;;;;;;;9.17;2.03;;;;;;;;;;5027898;28;21264;-85
2023/02/24 03:13:49;;;;;;;6.07;2.37;;;;;;;;;;5003052;28;20217;-85
2023/02/24 03:16:16;;;;;;;5.37;1.90;;;;;;;;;;4999009;28;20224;-84
2023/02/24 03:18:49;;;;;;;5.63;1.77;;;;;;;;;;4999782;28;20304;-85
2023/02/24 03:21:24;;;;;;;3.83;1.87;;;;;;;;;;4988131;28;20235;-85
2023/02/24 03:23:53;;;;;;;3.63;1.90;;;;;;;;;;4999487;28;20276;-84
2023/02/24 03:26:27;;;;;;;5.03;2.17;;;;;;;;;;4994373;28;20328;-84
2023/02/24 03:29:23;;;;;;;2.63;1.50;;;;;;;;;;4984163;28;20253;-85
2023/02/24 03:31:59;;;;;;;5.73;1.97;;;;;;;;;;4996445;28;20241;-86
2023/02/24 03:34:54;;;;;;;4.63;1.83;;;;;;;;;;4987239;28;20227;-86
2023/02/24 03:37:24;;;;;;;4.83;1.80;;;;;;;;;;4994291;28;20579;-85
2023/02/24 03:39:52;;;;;;;4.67;1.70;;;;;;;;;;5008793;28;20708;-85
2023/02/24 03:42:20;;;;;;;3.57;1.40;;;;;;;;;;4997647;28;20664;-86
2023/02/24 03:44:46;;;;;;;7.30;1.70;;;;;;;;;;4980831;28;20236;-84
2023/02/24 03:47:14;;;;;;;4.13;1.83;;;;;;;;;;4989381;28;20239;-85
2023/02/24 03:49:42;;;;;;;4.70;1.57;;;;;;;;;;4966570;28;20798;-85
2023/02/24 03:52:31;;;;;;;3.57;1.40;;;;;;;;;;4981799;28;20224;-84
2023/02/24 03:55:24;;;;;;;6.37;1.57;;;;;;;;;;4986074;28;20223;-85
2023/02/24 03:58:09;;;;;;;3.30;1.27;;;;;;;;;;4963587;28;20216;-85
2023/02/24 04:01:04;;;;;;;3.00;1.20;;;;;;;;;;5011132;28;20228;-85
2023/02/24 04:04:06;;;;;;;4.60;1.33;;;;;;;;;;5028220;28;20217;-85
2023/02/24 04:07:01;;;;;;;3.53;1.30;;;;;;;;;;5009385;28;20288;-86
2023/02/24 04:09:41;;;;;;;4.37;1.43;;;;;;;;;;5009050;28;20272;-86
2023/02/24 04:12:29;;;;;;;5.40;1.30;;;;;;;;;;5009590;28;20303;-86
2023/02/24 04:15:07;;;;;;;3.83;1.30;;;;;;;;;;4998520;28;20300;-86
2023/02/24 04:17:50;;;;;;;5.03;1.43;;;;;;;;;;4986033;28;20224;-87
2023/02/24 04:20:19;;;;;;;5.00;1.43;;;;;;;;;;5014211;28;20216;-87
2023/02/24 04:22:55;;;;;;;3.77;1.30;;;;;;;;;;4998718;28;20274;-86
2023/02/24 04:25:23;;;;;;;3.70;1.27;;;;;;;;;;4980893;28;20213;-86
2023/02/24 04:27:51;;;;;;;5.10;1.70;;;;;;;;;;4998133;28;20244;-86
2023/02/24 04:30:19;;;;;;;2.30;1.47;;;;;;;;;;4994815;28;20233;-87
2023/02/24 04:32:44;;;;;;;3.80;1.80;;;;;;;;;;4976064;28;20236;-87
2023/02/24 04:35:14;;;;;;;4.77;1.50;;;;;;;;;;4995451;28;20717;-88
2023/02/24 04:37:43;;;;;;;5.17;1.27;;;;;;;;;;4977062;28;20232;-85
2023/02/24 04:40:16;;;;;;;4.00;1.17;;;;;;;;;;5000007;28;20720;-85
2023/02/24 04:42:45;;;;;;;4.27;1.23;;;;;;;;;;4998487;28;20263;-86
2023/02/24 04:45:16;;;;;;;3.33;1.33;;;;;;;;;;4996465;28;20725;-86
2023/02/24 04:47:48;;;;;;;5.57;2.07;;;;;;;;;;5000551;28;20236;-86
2023/02/24 04:50:23;;;;;;;5.27;1.53;;;;;;;;;;4999163;28;20228;-87
2023/02/24 04:52:55;;;;;;;4.47;1.47;;;;;;;;;;4982094;28;20221;-85
2023/02/24 04:55:25;;;;;;;4.83;1.63;;;;;;;;;;4965418;28;20228;-85
2023/02/24 04:57:57;;;;;;;2.93;1.23;;;;;;;;;;4997136;28;20221;-84
2023/02/24 05:00:25;;;;;;;8.67;1.37;;;;;;;;;;4992785;28;20232;-86
2023/02/24 05:02:55;;;;;;;5.10;1.30;;;;;;;;;;5011886;28;20216;-85
2023/02/24 05:05:27;;;;;;;8.83;1.50;;;;;;;;;;4992798;28;20284;-87
2023/02/24 05:08:07;;;;;;;7.10;1.40;;;;;;;;;;4976035;28;20922;-85
2023/02/24 05:10:40;;;;;;;3.37;1.20;;;;;;;;;;4980312;28;20225;-84
2023/02/24 05:13:07;;;;;;;4.73;1.53;;;;;;;;;;4993700;28;20225;-85
2023/02/24 05:15:34;;;;;;;2.17;1.27;;;;;;;;;;4995038;28;20713;-87
2023/02/24 05:18:00;;;;;;;5.50;2.10;;;;;;;;;;4991996;28;20217;-86
2023/02/24 05:23:20;;;;;;;3.83;1.70;;;;;;;;;;4985077;28;20304;-86
2023/02/24 05:25:46;;;;;;;2.73;1.23;;;;;;;;;;4998898;28;20217;-86
2023/02/24 05:28:11;;;;;;;2.17;1.10;;;;;;;;;;5003439;28;20214;-84
2023/02/24 05:30:37;;;;;;;7.40;1.40;;;;;;;;;;4984463;28;20228;-84
2023/02/24 05:33:03;;;;;;;2.70;1.20;;;;;;;;;;5002888;28;20224;-88
2023/02/24 05:35:31;;;;;;;5.70;1.40;;;;;;;;;;4973594;28;20227;-84
2023/02/24 05:37:57;;;;;;;3.37;1.27;;;;;;;;;;4995372;28;20224;-86
2023/02/24 05:40:24;;;;;;;3.00;1.10;;;;;;;;;;4987144;28;20864;-86
2023/02/24 05:42:50;;;;;;;2.17;1.00;;;;;;;;;;4973989;28;20221;-86
2023/02/24 05:45:17;;;;;;;3.40;1.23;;;;;;;;;;4990329;28;21163;-87
2023/02/24 05:47:46;;;;;;;3.03;1.20;;;;;;;;;;4966675;28;20780;-87
2023/02/24 05:50:12;;;;;;;3.60;1.27;;;;;;;;;;4962034;28;20292;-86
2023/02/24 05:52:38;;;;;;;3.40;1.73;;;;;;;;;;4981815;28;20274;-86
2023/02/24 05:55:12;;;;;;;5.87;1.50;;;;;;;;;;4962492;28;20217;-86
2023/02/24 05:57:38;;;;;;;3.83;1.43;;;;;;;;;;5019186;28;20255;-87
2023/02/24 06:00:15;;;;;;;3.00;1.30;;;;;;;;;;4994129;28;20206;-86
2023/02/24 06:02:48;;;;;;;2.20;1.20;;;;;;;;;;5011445;28;20266;-86
2023/02/24 06:05:24;;;;;;;3.47;1.30;;;;;;;;;;4985963;28;20255;-88
2023/02/24 06:08:10;;;;;;;1.93;1.27;;;;;;;;;;5008287;28;20223;-85
2023/02/24 06:10:39;;;;;;;4.00;1.43;;;;;;;;;;5007254;28;20228;-86
2023/02/24 06:13:07;;;;;;;3.53;1.10;;;;;;;;;;4995797;28;20225;-85
2023/02/24 06:15:36;;;;;;;3.40;1.40;;;;;;;;;;4998220;28;20228;-86
2023/02/24 06:18:01;;;;;;;2.17;1.30;;;;;;;;;;5000207;28;21207;-84
2023/02/24 06:20:27;;;;;;;5.57;1.40;;;;;;;;;;4984145;28;20217;-85
2023/02/24 06:22:57;;;;;;;3.63;1.20;;;;;;;;;;5002080;28;20224;-87
2023/02/24 06:25:24;;;;;;;5.00;1.30;;;;;;;;;;4969962;28;20224;-88
2023/02/24 06:27:53;;;;;;;4.43;1.10;;;;;;;;;;4985521;28;20229;-87
2023/02/24 06:30:21;;;;;;;5.43;1.40;;;;;;;;;;4970639;28;20229;-86
2023/02/24 06:32:47;;;;;;;1.27;0.87;;;;;;;;;;4966213;28;20248;-85
2023/02/24 06:35:12;;;;;;;4.70;1.33;;;;;;;;;;4999360;28;20216;-88
2023/02/24 06:37:38;;;;;;;2.57;0.97;;;;;;;;;;4972450;28;20248;-87
2023/02/24 06:40:16;;;;;;;6.30;1.37;;;;;;;;;;5000436;28;20212;-85
2023/02/24 06:42:52;;;;;;;4.40;1.40;;;;;;;;;;4988397;28;20201;-87
2023/02/24 06:45:18;;;;;;;2.70;1.00;;;;;;;;;;4998117;28;20229;-87
2023/02/24 06:47:47;;;;;;;3.53;1.10;;;;;;;;;;4970239;28;20221;-86
2023/02/24 06:50:14;;;;;;;3.03;1.30;;;;;;;;;;4977749;28;20241;-87
2023/02/24 06:52:42;;;;;;;3.10;1.90;;;;;;;;;;5002983;28;20224;-86
2023/02/24 06:55:26;;;;;;;3.63;1.47;;;;;;;;;;4988953;28;20221;-86
2023/02/24 06:57:56;;;;;;;4.83;1.80;;;;;;;;;;4973229;28;20226;-86
2023/02/24 07:00:41;;;;;;;6.10;1.50;;;;;;;;;;5008929;28;20224;-86
2023/02/24 07:03:14;;;;;;;3.27;1.10;;;;;;;;;;4990374;28;20224;-86
2023/02/24 07:05:52;;;;;;;4.80;1.53;;;;;;;;;;4989467;28;20228;-84
2023/02/24 07:08:26;;;;;;;6.57;1.30;;;;;;;;;;4984105;28;20232;-86
2023/02/24 07:11:00;;;;;;;5.60;1.40;;;;;;;;;;4987683;28;20224;-86
2023/02/24 07:13:29;;;;;;;3.10;1.47;;;;;;;;;;5005687;28;20240;-86
2023/02/24 07:15:55;;;;;;;3.80;1.27;;;;;;;;;;4985103;28;20224;-87
2023/02/24 07:18:25;;;;;;;3.77;1.63;;;;;;;;;;4995528;28;20227;-86
2023/02/24 07:20:53;;;;;;;3.90;1.50;;;;;;;;;;4994444;28;20299;-86
2023/02/24 07:23:20;;;;;;;3.30;1.33;;;;;;;;;;5004501;28;20236;-86
2023/02/24 07:25:52;;;;;;;4.47;1.70;;;;;;;;;;5001802;28;20760;-88
2023/02/24 07:28:18;;;;;;;2.40;1.17;;;;;;;;;;4999083;28;20627;-87
2023/02/24 07:30:43;;;;;;;6.87;2.90;;;;;;;;;;4984695;28;20239;-87
2023/02/24 07:33:13;;;;;;;9.20;4.20;;;;;;;;;;4981030;28;20225;-86
2023/02/24 07:35:49;;;;;;;4.37;1.73;;;;;;;;;;5005657;28;20703;-88
2023/02/24 07:38:21;;;;;;;4.00;1.37;;;;;;;;;;4989302;28;20225;-85
2023/02/24 07:40:50;;;;;;;2.60;1.23;;;;;;;;;;5002397;28;20216;-86
2023/02/24 07:43:18;;;;;;;2.77;1.50;;;;;;;;;;4995441;28;20588;-87
2023/02/24 07:45:46;;;;;;;2.60;1.83;;;;;;;;;;4999429;28;20213;-86
2023/02/24 07:48:13;;;;;;;3.83;2.10;;;;;;;;;;5002264;28;20217;-84
2023/02/24 07:50:42;;;;;;;4.70;1.73;;;;;;;;;;4993482;28;20280;-85
2023/02/24 07:53:10;;;;;;;5.07;3.53;;;;;;;;;;5008549;28;20263;-84
2023/02/24 07:55:36;;;;;;;5.73;3.33;;;;;;;;;;5022724;28;20236;-84
2023/02/24 07:58:04;;;;;;;3.00;1.53;;;;;;;;;;4996925;28;20228;-84
2023/02/24 08:00:58;;;;;;;5.37;2.20;;;;;;;;;;5018148;28;20223;-85
2023/02/24 08:03:18;;;;;;;11.50;2.07;;;;;;;;;;4996379;28;20232;-88
2023/02/24 08:05:48;;;;;;;4.83;3.23;;;;;;;;;;5016286;28;20286;-86
2023/02/24 08:08:19;;;;;;;4.73;2.77;;;;;;;;;;5010310;28;20229;-85
2023/02/24 08:10:46;;;;;;;7.90;5.90;;;;;;;;;;4992828;28;20289;-86
2023/02/24 08:13:14;;;;;;;9.40;4.50;;;;;;;;;;4987792;28;20218;-88
2023/02/24 08:15:55;;;;;;;9.27;3.73;;;;;;;;;;5006466;28;20283;-84
2023/02/24 08:18:20;;;;;;;27.60;15.03;;;;;;;;;;4983525;28;20311;-86
2023/02/24 08:20:52;;;;;;;10.93;4.30;;;;;;;;;;5003207;28;20244;-86
2023/02/24 08:23:22;;;;;;;16.23;8.43;;;;;;;;;;4985623;28;20216;-83
2023/02/24 08:25:48;;;;;;;8.67;3.83;;;;;;;;;;5027309;28;20300;-87
2023/02/24 08:28:13;;;;;;;3.67;2.77;;;;;;;;;;5000108;28;20758;-86
2023/02/24 08:30:45;;;;;;;3.07;2.07;;;;;;;;;;4985131;28;20232;-84
2023/02/24 08:33:17;;;;;;;3.50;2.70;;;;;;;;;;4978404;28;20560;-90
2023/02/24 08:35:50;;;;;;;4.37;2.10;;;;;;;;;;4999144;28;20607;-86
2023/02/24 08:38:19;;;;;;;3.90;2.30;;;;;;;;;;5011915;28;20225;-89
2023/02/24 08:40:53;;;;;;;5.00;2.30;;;;;;;;;;5023630;28;20275;-86
2023/02/24 08:46:36;;;;;;;2.87;1.50;;;;;;;;;;5014661;28;20723;-85
2023/02/24 08:49:01;;;;;;;3.77;1.70;;;;;;;;;;5014064;28;20248;-87
2023/02/24 08:51:33;;;;;;;2.67;1.57;;;;;;;;;;4986043;28;20224;-87
2023/02/24 08:54:14;;;;;;;2.60;1.60;;;;;;;;;;5000635;28;20231;-90
2023/02/24 08:56:42;;;;;;;5.77;2.30;;;;;;;;;;4984616;28;20217;-88
2023/02/24 08:59:14;;;;;;;4.40;1.77;;;;;;;;;;5022265;28;20209;-87
2023/02/24 09:01:51;;;;;;;2.40;1.47;;;;;;;;;;5008207;28;20217;-84
2023/02/24 09:04:18;;;;;;;1.50;1.40;;;;;;;;;;5006537;28;20212;-87
2023/02/24 09:06:56;;;;;;;2.80;1.50;;;;;;;;;;4987286;28;20220;-87
2023/02/24 09:09:22;;;;;;;3.93;1.70;;;;;;;;;;4981879;28;20239;-86
2023/02/24 09:11:57;;;;;;;1.43;1.20;;;;;;;;;;5001256;28;20821;-87
2023/02/24 09:14:27;;;;;;;2.20;1.50;;;;;;;;;;4997998;28;20228;-87
2023/02/24 09:17:04;;;;;;;2.80;1.40;;;;;;;;;;5002435;28;20231;-87
2023/02/24 09:22:31;;;;;;;;;;;;;;;;;;;;;
2023/02/24 09:25:16;;;;;;;3.30;1.60;;;;;;;;;;5002186;28;20235;-85
2023/02/24 09:28:06;;;;;;;1.57;1.43;;;;;;;;;;4982288;28;20237;-86
2023/02/24 09:30:37;;;;;;;6.73;1.70;;;;;;;;;;4999817;28;20233;-89
2023/02/24 09:33:17;;;;;;;1.83;1.30;;;;;;;;;;4993555;28;20216;-90
2023/02/24 09:36:01;;;;;;;1.77;1.27;;;;;;;;;;4983693;28;20270;-87
2023/02/24 09:39:08;;;;;;;2.73;1.30;;;;;;;;;;5000407;28;20681;-87
2023/02/24 09:41:32;;;;;;;2.47;1.40;;;;;;;;;;4986948;28;20455;-88
2023/02/24 09:44:16;;;;;;;5.30;1.60;;;;;;;;;;4981387;28;20216;-89
2023/02/24 09:47:14;;;;;;;1.90;1.40;;;;;;;;;;4984515;28;20232;-86
2023/02/24 09:49:45;;;;;;;2.33;1.33;;;;;;;;;;4959725;28;20298;-84
2023/02/24 09:52:17;;;;;;;3.13;1.93;;;;;;;;;;4994409;28;20249;-89
2023/02/24 09:55:17;;;;;;;1.57;1.47;;;;;;;;;;4996226;28;20290;-84
2023/02/24 10:00:42;;;;;;;2.17;1.40;;;;;;;;;;4979115;28;20276;-85
2023/02/24 10:03:41;;;;;;;2.40;1.90;;;;;;;;;;5005026;28;20297;-90
2023/02/24 10:06:37;;;;;;;3.00;2.70;;;;;;;;;;5013610;28;20272;-84
2023/02/24 10:09:11;;;;;;;3.23;2.83;;;;;;;;;;4984397;28;20229;-85
2023/02/24 10:11:52;;;;;;;2.37;2.17;;;;;;;;;;4972231;28;20239;-84
2023/02/24 10:14:26;;;;;;;1.93;1.80;;;;;;;;;;4986907;28;20255;-86
2023/02/24 10:19:40;;;;;;;2.37;2.00;;;;;;;;;;4983869;28;20214;-86
2023/02/24 10:22:28;;;;;;;3.67;2.17;;;;;;;;;;5002539;28;20209;-86
2023/02/24 10:25:17;;;;;;;2.67;2.47;;;;;;;;;;4982506;28;20224;-86
2023/02/24 10:27:58;;;;;;;3.60;3.30;;;;;;;;;;4973671;28;20221;-86
2023/02/24 10:30:40;;;;;;;2.80;2.60;;;;;;;;;;5014738;28;20837;-87
2023/02/24 10:33:19;;;;;;;2.83;2.63;;;;;;;;;;5000297;28;20298;-88
2023/02/24 10:35:49;;;;;;;2.63;2.43;;;;;;;;;;5016512;28;20232;-86
2023/02/24 10:38:14;;;;;;;2.70;2.53;;;;;;;;;;4997573;28;20260;-85
2023/02/24 10:40:55;;;;;;;3.83;2.73;;;;;;;;;;4964967;28;20627;-88
2023/02/24 10:43:30;;;;;;;2.90;2.70;;;;;;;;;;4991269;28;20760;-85
2023/02/24 10:46:15;;;;;;;2.70;2.50;;;;;;;;;;5000564;28;20696;-87
2023/02/24 10:48:41;;;;;;;3.00;2.70;;;;;;;;;;4975409;28;20540;-84
2023/02/24 10:51:18;;;;;;;4.03;3.03;;;;;;;;;;4983921;28;20267;-87
2023/02/24 10:53:52;;;;;;;3.73;2.60;;;;;;;;;;5018909;28;20220;-85
2023/02/24 10:56:25;;;;;;;4.17;2.90;;;;;;;;;;5000783;28;20594;-87
2023/02/24 10:59:19;;;;;;;2.37;2.20;;;;;;;;;;4999148;28;20229;-87
2023/02/24 11:01:54;;;;;;;3.47;2.53;;;;;;;;;;5018777;28;20225;-86
2023/02/24 11:04:32;;;;;;;3.20;3.00;;;;;;;;;;5005239;28;20219;-87
2023/02/24 11:07:08;;;;;;;3.07;2.83;;;;;;;;;;4988928;28;20221;-87
2023/02/24 11:09:51;;;;;;;3.37;3.07;;;;;;;;;;5002385;28;20228;-85
2023/02/24 11:18:39;;;;;;;3.50;3.30;;;;;;;;;;5017049;28;20229;-87
2023/02/24 11:21:07;;;;;;;3.90;3.50;;;;;;;;;;5004348;28;20233;-86
2023/02/24 11:23:35;;;;;;;3.60;3.30;;;;;;;;;;5005895;28;20217;-87
2023/02/24 11:26:15;;;;;;;3.83;3.53;;;;;;;;;;5015120;28;20216;-85
2023/02/24 11:28:48;;;;;;;3.43;3.13;;;;;;;;;;4983357;28;20828;-85
2023/02/24 11:31:23;;;;;;;3.83;3.50;;;;;;;;;;5017250;28;20220;-86
2023/02/24 11:33:51;;;;;;;3.70;3.40;;;;;;;;;;5000925;28;20239;-85
2023/02/24 11:36:36;;;;;;;3.73;3.30;;;;;;;;;;5002327;28;20213;-85
2023/02/24 11:39:21;;;;;;;3.87;3.57;;;;;;;;;;4983471;28;21068;-86
2023/02/24 11:41:51;;;;;;;3.93;3.63;;;;;;;;;;4984025;28;20541;-86
2023/02/24 11:44:20;;;;;;;3.37;3.17;;;;;;;;;;5006801;28;20221;-87
2023/02/24 11:46:56;;;;;;;4.70;4.30;;;;;;;;;;5004704;28;20256;-87
2023/02/24 11:49:35;;;;;;;3.90;3.60;;;;;;;;;;4972140;28;20272;-85
2023/02/24 11:52:03;;;;;;;4.40;4.00;;;;;;;;;;4980337;28;20303;-85
2023/02/24 11:54:35;;;;;;;4.80;4.30;;;;;;;;;;5020215;28;20240;-84
2023/02/24 11:57:03;;;;;;;4.03;3.73;;;;;;;;;;4995341;28;20651;-86
2023/02/24 11:59:35;;;;;;;4.13;3.83;;;;;;;;;;4988305;28;20221;-85
2023/02/24 12:02:29;;;;;;;5.40;4.90;;;;;;;;;;5013201;28;20220;-86
2023/02/24 12:05:24;;;;;;;4.80;4.40;;;;;;;;;;5014064;28;20706;-86
2023/02/24 12:07:55;;;;;;;4.43;4.13;;;;;;;;;;5007731;28;20239;-86
2023/02/24 12:10:40;;;;;;;4.10;3.80;;;;;;;;;;4983398;28;20253;-87
2023/02/24 12:13:20;;;;;;;3.40;3.20;;;;;;;;;;4999152;28;20212;-86
2023/02/24 12:15:56;;;;;;;4.10;3.80;;;;;;;;;;5000879;28;20228;-86
2023/02/24 12:18:33;;;;;;;6.50;3.60;;;;;;;;;;4971501;28;20225;-84
2023/02/24 12:21:24;;;;;;;3.80;3.40;;;;;;;;;;5006187;28;20221;-83
2023/02/24 12:23:53;;;;;;;3.27;3.07;;;;;;;;;;4994701;28;20255;-82
2023/02/24 12:26:26;;;;;;;3.50;3.20;;;;;;;;;;4994905;28;20224;-85
2023/02/24 12:29:27;;;;;;;3.57;3.37;;;;;;;;;;5024141;28;20228;-85
2023/02/24 12:32:30;;;;;;;3.53;3.23;;;;;;;;;;5005630;28;20225;-88
2023/02/24 12:35:06;;;;;;;3.07;2.87;;;;;;;;;;5006122;28;20247;-88
2023/02/24 12:37:53;;;;;;;3.50;3.27;;;;;;;;;;5009855;28;20228;-81
2023/02/24 12:40:33;;;;;;;4.17;3.50;;;;;;;;;;4993327;28;20241;-83
2023/02/24 12:43:05;;;;;;;5.87;3.60;;;;;;;;;;4991836;28;20224;-81
2023/02/24 12:45:49;;;;;;;3.90;3.60;;;;;;;;;;4994825;28;20296;-80
2023/02/24 12:48:23;;;;;;;4.30;3.93;;;;;;;;;;5016163;28;20228;-82
2023/02/24 12:51:00;;;;;;;3.93;3.63;;;;;;;;;;4998769;28;20283;-80
2023/02/24 12:53:41;;;;;;;5.20;4.60;;;;;;;;;;5015014;28;20240;-79
2023/02/24 12:56:12;;;;;;;4.50;4.10;;;;;;;;;;4981750;28;20220;-82
2023/02/24 12:58:40;;;;;;;4.00;3.70;;;;;;;;;;4996732;28;20233;-80
2023/02/24 13:01:53;;;;;;;4.33;4.03;;;;;;;;;;4996219;28;20224;-84
2023/02/24 13:04:40;;;;;;;4.13;3.77;;;;;;;;;;5005129;28;20235;-80
2023/02/24 13:07:29;;;;;;;4.13;3.80;;;;;;;;;;4954383;28;20220;-83
2023/02/24 13:10:33;;;;;;;3.93;3.60;;;;;;;;;;5015590;28;20221;-80
2023/02/24 13:13:09;;;;;;;6.80;3.53;;;;;;;;;;4983731;28;20679;-82
2023/02/24 13:15:35;;;;;;;4.03;3.77;;;;;;;;;;4995422;28;20225;-84
2023/02/24 13:18:00;;;;;;;3.47;3.20;;;;;;;;;;4978222;28;20225;-80
2023/02/24 13:20:36;;;;;;;3.50;3.30;;;;;;;;;;4997919;28;20229;-79
2023/02/24 13:23:03;;;;;;;6.07;5.50;;;;;;;;;;4999145;28;20375;-83
2023/02/24 13:25:35;;;;;;;7.37;6.77;;;;;;;;;;4965327;28;20228;-80
2023/02/24 13:28:05;;;;;;;3.60;3.10;;;;;;;;;;4991565;28;20288;-79
2023/02/24 13:30:40;;;;;;;5.43;4.30;;;;;;;;;;4994764;28;20225;-79
2023/02/24 13:33:20;;;;;;;4.77;4.43;;;;;;;;;;5013181;28;20231;-78
2023/02/24 13:35:47;;;;;;;4.00;3.70;;;;;;;;;;4996353;28;20298;-78
2023/02/24 13:38:22;;;;;;;3.90;3.60;;;;;;;;;;4987490;28;20237;-78
2023/02/24 13:40:48;;;;;;;3.80;3.50;;;;;;;;;;4996152;28;20224;-80
2023/02/24 13:43:24;;;;;;;4.23;3.90;;;;;;;;;;4977808;28;20745;-79
2023/02/24 13:45:55;;;;;;;4.73;4.27;;;;;;;;;;4992047;28;20283;-79
2023/02/24 13:48:23;;;;;;;6.63;4.63;;;;;;;;;;4977175;28;20212;-83
2023/02/24 13:51:07;;;;;;;8.37;5.00;;;;;;;;;;5002456;28;20409;-79
2023/02/24 13:53:55;;;;;;;4.77;3.93;;;;;;;;;;4999265;28;20221;-79
2023/02/24 13:56:44;;;;;;;6.00;5.33;;;;;;;;;;5007024;28;20216;-81
2023/02/24 13:59:14;;;;;;;4.17;3.80;;;;;;;;;;4993312;28;20424;-81
2023/02/24 14:02:34;;;;;;;6.10;5.47;;;;;;;;;;5011349;28;20236;-79
2023/02/24 14:04:59;;;;;;;4.63;4.10;;;;;;;;;;5007547;28;20325;-81
2023/02/24 14:07:29;;;;;;;4.47;4.07;;;;;;;;;;4994879;28;20224;-80
2023/02/24 14:10:04;;;;;;;4.30;3.97;;;;;;;;;;4994087;28;20237;-80
2023/02/24 14:12:31;;;;;;;5.13;4.63;;;;;;;;;;4994503;28;20223;-80
2023/02/24 14:14:56;;;;;;;5.80;5.27;;;;;;;;;;4992330;28;20248;-81
2023/02/24 14:17:28;;;;;;;4.50;4.10;;;;;;;;;;4997276;28;20236;-81
2023/02/24 14:20:04;;;;;;;5.00;4.50;;;;;;;;;;4980834;28;20225;-80
2023/02/24 14:22:33;;;;;;;5.13;4.63;;;;;;;;;;4995254;28;20746;-78
2023/02/24 14:25:07;;;;;;;5.60;5.00;;;;;;;;;;5016408;28;20335;-82
2023/02/24 14:27:33;;;;;;;5.67;5.23;;;;;;;;;;4995760;28;20228;-81
2023/02/24 14:30:02;;;;;;;6.30;5.80;;;;;;;;;;4999683;28;20283;-82
2023/02/24 14:32:30;;;;;;;6.10;5.50;;;;;;;;;;4999489;28;20224;-80
2023/02/24 14:34:58;;;;;;;6.57;5.97;;;;;;;;;;4998889;28;20320;-80
2023/02/24 14:37:25;;;;;;;7.00;5.63;;;;;;;;;;4998631;28;20232;-81
2023/02/24 14:39:52;;;;;;;6.73;4.80;;;;;;;;;;4997567;28;20596;-82
2023/02/24 14:42:19;;;;;;;6.47;5.23;;;;;;;;;;4979797;28;20225;-79
2023/02/24 14:44:56;;;;;;;7.30;6.60;;;;;;;;;;4980861;28;20213;-82
2023/02/24 14:47:27;;;;;;;11.47;6.20;;;;;;;;;;5003174;28;20281;-79
2023/02/24 14:49:55;;;;;;;6.13;5.53;;;;;;;;;;5002403;28;20785;-80
2023/02/24 14:52:29;;;;;;;5.63;5.13;;;;;;;;;;5002745;28;20225;-80
2023/02/24 14:54:58;;;;;;;7.23;5.20;;;;;;;;;;4996741;28;20228;-82
2023/02/24 14:57:26;;;;;;;9.30;6.57;;;;;;;;;;4974623;28;20220;-79
2023/02/24 14:59:55;;;;;;;7.60;6.30;;;;;;;;;;4994513;28;20245;-81
2023/02/24 15:02:23;;;;;;;8.10;5.73;;;;;;;;;;4996975;28;20217;-81
2023/02/24 15:04:49;;;;;;;7.07;5.57;;;;;;;;;;4984145;28;20216;-81
2023/02/24 15:07:25;;;;;;;8.00;5.87;;;;;;;;;;4992760;28;20785;-80
2023/02/24 15:09:53;;;;;;;7.23;5.57;;;;;;;;;;4995982;28;20248;-81
2023/02/24 15:12:19;;;;;;;7.07;5.47;;;;;;;;;;4995787;28;20228;-81
2023/02/24 15:14:50;;;;;;;7.10;6.40;;;;;;;;;;5016233;28;20376;-82
2023/02/24 15:17:17;;;;;;;6.50;5.57;;;;;;;;;;4999846;28;20803;-80
2023/02/24 15:19:45;;;;;;;9.70;7.63;;;;;;;;;;5001134;28;20220;-79
2023/02/24 15:22:20;;;;;;;7.10;5.97;;;;;;;;;;5000451;28;20228;-81
2023/02/24 15:24:45;;;;;;;6.43;5.50;;;;;;;;;;5018784;28;20220;-81
2023/02/24 15:27:13;;;;;;;5.13;4.73;;;;;;;;;;4997409;28;20855;-82
2023/02/24 15:29:42;;;;;;;7.90;5.00;;;;;;;;;;5017226;28;20233;-81
2023/02/24 15:32:17;;;;;;;6.00;4.77;;;;;;;;;;5000464;28;20244;-84
2023/02/24 15:34:44;;;;;;;4.83;4.30;;;;;;;;;;4981739;28;20224;-81
2023/02/24 15:37:25;;;;;;;6.37;4.70;;;;;;;;;;4986037;28;20251;-81
2023/02/24 15:39:54;;;;;;;7.27;5.00;;;;;;;;;;4987845;28;20635;-81
2023/02/24 15:42:33;;;;;;;5.23;4.73;;;;;;;;;;5008317;28;20216;-82
2023/02/24 15:45:26;;;;;;;5.67;5.13;;;;;;;;;;4982490;28;20216;-83